createdAt,value
2023-01-07T00:01:55.341Z,2.00
2023-01-07T00:04:55.680Z,1.83
2023-01-07T00:07:31.420Z,1.57
2023-01-07T00:10:19.941Z,1.83
2023-01-07T00:13:11.937Z,1.70
2023-01-07T00:16:02.960Z,1.53
2023-01-07T00:18:45.139Z,1.57
2023-01-07T00:21:23.737Z,1.70
2023-01-07T00:24:04.674Z,2.07
2023-01-07T00:26:35.534Z,1.63
2023-01-07T00:29:07.384Z,2.17
2023-01-07T00:31:45.056Z,2.07
2023-01-07T00:34:24.533Z,1.90
2023-01-07T00:37:26.500Z,1.80
2023-01-07T00:40:04.281Z,1.90
2023-01-07T00:42:50.740Z,2.03
2023-01-07T00:45:42.354Z,1.90
2023-01-07T00:48:37.955Z,2.00
2023-01-07T00:51:12.320Z,2.23
2023-01-07T00:53:45.366Z,1.80
2023-01-07T00:56:19.607Z,2.17
2023-01-07T00:59:16.771Z,1.60
2023-01-07T01:01:58.679Z,1.83
2023-01-07T01:04:35.415Z,2.07
2023-01-07T01:07:14.265Z,1.93
2023-01-07T01:10:00.092Z,2.30
2023-01-07T01:12:31.470Z,2.00
2023-01-07T01:15:02.388Z,1.80
2023-01-07T01:17:48.481Z,2.53
2023-01-07T01:20:30.028Z,2.23
2023-01-07T01:23:04.138Z,2.10
2023-01-07T01:25:35.669Z,1.80
2023-01-07T01:28:09.129Z,1.87
2023-01-07T01:30:43.354Z,2.37
2023-01-07T01:33:25.976Z,1.60
2023-01-07T01:35:58.193Z,1.80
2023-01-07T01:38:32.964Z,1.80
2023-01-07T01:41:06.924Z,2.03
2023-01-07T01:43:38.584Z,1.90
2023-01-07T01:46:21.914Z,1.90
2023-01-07T01:48:59.663Z,1.87
2023-01-07T01:51:52.769Z,1.87
2023-01-07T01:54:31.546Z,1.73
2023-01-07T01:57:18.310Z,1.90
2023-01-07T01:59:52.508Z,1.90
2023-01-07T02:02:38.716Z,1.80
2023-01-07T02:05:32.628Z,1.97
2023-01-07T02:08:26.722Z,1.47
2023-01-07T02:11:10.888Z,1.60
2023-01-07T02:13:53.946Z,1.67
2023-01-07T02:16:34.050Z,1.77
2023-01-07T02:19:37.686Z,1.53
2023-01-07T02:22:27.417Z,1.70
2023-01-07T02:25:34.104Z,1.60
2023-01-07T02:28:37.599Z,1.70
2023-01-07T02:31:30.521Z,1.57
2023-01-07T02:34:14.203Z,1.70
2023-01-07T02:36:54.699Z,1.40
2023-01-07T02:39:52.369Z,1.20
2023-01-07T02:42:43.946Z,1.40
2023-01-07T02:45:24.934Z,1.43
2023-01-07T02:48:14.028Z,1.50
2023-01-07T02:50:45.774Z,1.53
2023-01-07T02:53:23.353Z,1.30
2023-01-07T02:56:06.831Z,1.27
2023-01-07T02:59:30.906Z,1.47
2023-01-07T03:02:52.939Z,1.50
2023-01-07T03:05:42.297Z,1.70
2023-01-07T03:08:42.416Z,1.60
2023-01-07T03:11:13.041Z,1.50
2023-01-07T03:13:48.324Z,1.70
2023-01-07T03:16:33.042Z,1.67
2023-01-07T03:19:12.937Z,1.10
2023-01-07T03:21:48.673Z,1.47
2023-01-07T03:24:34.780Z,1.30
2023-01-07T03:27:06.511Z,1.40
2023-01-07T03:29:42.500Z,1.33
2023-01-07T03:32:17.024Z,1.10
2023-01-07T03:35:01.823Z,1.10
2023-01-07T03:37:31.634Z,1.20
2023-01-07T03:40:15.775Z,1.30
2023-01-07T03:42:48.068Z,1.23
2023-01-07T03:45:22.987Z,1.40
2023-01-07T03:47:56.313Z,1.10
2023-01-07T03:50:26.570Z,1.30
2023-01-07T03:52:57.354Z,1.40
2023-01-07T03:55:34.486Z,1.20
2023-01-07T03:58:08.487Z,1.50
2023-01-07T04:00:41.524Z,1.20
2023-01-07T04:03:13.095Z,1.30
2023-01-07T04:05:43.806Z,1.40
2023-01-07T04:08:12.200Z,1.40
2023-01-07T04:10:43.393Z,1.40
2023-01-07T04:13:13.298Z,1.33
2023-01-07T04:15:44.982Z,1.07
2023-01-07T04:18:13.441Z,1.20
2023-01-07T04:20:42.291Z,1.17
2023-01-07T04:24:13.208Z,1.10
2023-01-07T04:26:05.550Z,1.10
2023-01-07T04:28:35.576Z,1.00
2023-01-07T04:31:05.853Z,1.20
2023-01-07T04:33:34.324Z,0.90
2023-01-07T04:36:07.177Z,0.90
2023-01-07T04:38:35.675Z,1.10
2023-01-07T04:41:08.573Z,1.67
2023-01-07T04:43:37.547Z,1.13
2023-01-07T04:46:06.306Z,1.20
2023-01-07T04:48:34.993Z,1.10
2023-01-07T04:51:09.052Z,1.17
2023-01-07T04:53:38.726Z,0.97
2023-01-07T04:56:12.160Z,1.30
2023-01-07T04:58:42.775Z,0.90
2023-01-07T05:01:11.535Z,1.40
2023-01-07T05:03:40.231Z,1.27
2023-01-07T05:06:21.279Z,1.30
2023-01-07T05:08:49.887Z,1.30
2023-01-07T05:11:22.059Z,1.20
2023-01-07T05:13:51.240Z,1.10
2023-01-07T05:16:21.998Z,1.60
2023-01-07T05:18:52.867Z,1.20
2023-01-07T05:21:21.647Z,1.30
2023-01-07T05:23:50.358Z,1.50
2023-01-07T05:26:20.598Z,1.40
2023-01-07T05:28:50.248Z,1.43
2023-01-07T05:31:21.112Z,1.47
2023-01-07T05:33:52.263Z,1.40
2023-01-07T05:36:23.607Z,1.37
2023-01-07T05:38:53.687Z,1.50
2023-01-07T05:41:30.782Z,1.43
2023-01-07T05:44:09.770Z,1.60
2023-01-07T05:46:39.331Z,1.40
2023-01-07T05:49:10.921Z,1.47
2023-01-07T05:51:49.275Z,1.30
2023-01-07T05:54:18.987Z,1.40
2023-01-07T05:57:03.281Z,1.60
2023-01-07T05:59:36.319Z,1.40
2023-01-07T06:02:09.785Z,1.50
2023-01-07T06:04:44.215Z,1.40
2023-01-07T06:07:12.816Z,1.70
2023-01-07T06:09:42.743Z,1.80
2023-01-07T06:12:20.624Z,1.50
2023-01-07T06:15:14.200Z,1.77
2023-01-07T06:17:45.438Z,1.63
2023-01-07T06:20:19.084Z,1.70
2023-01-07T06:22:58.120Z,1.87
2023-01-07T06:25:29.571Z,2.10
2023-01-07T06:28:10.420Z,2.00
2023-01-07T06:30:38.851Z,1.90
2023-01-07T06:33:08.138Z,2.20
2023-01-07T06:35:39.526Z,2.00
2023-01-07T06:38:08.548Z,2.13
2023-01-07T06:40:39.446Z,2.40
2023-01-07T06:43:09.470Z,2.70
2023-01-07T06:45:40.052Z,2.30
2023-01-07T06:48:24.017Z,2.70
2023-01-07T06:50:52.713Z,2.40
2023-01-07T06:53:29.693Z,2.60
2023-01-07T06:56:02.602Z,3.10
2023-01-07T06:58:33.186Z,2.50
2023-01-07T07:01:07.068Z,2.93
2023-01-07T07:03:36.910Z,2.63
2023-01-07T07:06:06.273Z,3.40
2023-01-07T07:08:36.161Z,2.93
2023-01-07T07:11:09.192Z,3.00
2023-01-07T07:13:40.229Z,2.53
2023-01-07T07:16:13.181Z,3.13
2023-01-07T07:18:44.330Z,3.03
2023-01-07T07:21:13.039Z,3.20
2023-01-07T07:23:46.944Z,3.07
2023-01-07T07:26:22.902Z,3.17
2023-01-07T07:28:53.019Z,3.10
2023-01-07T07:31:24.324Z,3.00
2023-01-07T07:34:01.056Z,2.90
2023-01-07T07:36:32.363Z,3.00
2023-01-07T07:39:07.184Z,3.13
2023-01-07T07:41:39.763Z,2.70
2023-01-07T07:44:10.694Z,3.00
2023-01-07T07:46:41.320Z,3.37
2023-01-07T07:49:11.384Z,3.13
2023-01-07T07:51:41.424Z,3.30
2023-01-07T07:54:12.390Z,3.33
2023-01-07T07:56:40.963Z,3.17
2023-01-07T07:59:14.081Z,3.10
2023-01-07T08:01:48.284Z,3.40
2023-01-07T08:04:21.146Z,3.13
2023-01-07T08:06:51.635Z,3.47
2023-01-07T08:09:21.329Z,2.90
2023-01-07T08:11:49.678Z,2.87
2023-01-07T08:14:20.563Z,3.13
2023-01-07T08:16:51.484Z,2.80
2023-01-07T08:19:20.339Z,3.00
2023-01-07T08:21:53.636Z,3.27
2023-01-07T08:24:37.843Z,2.87
2023-01-07T08:27:08.332Z,3.30
2023-01-07T08:29:42.370Z,2.87
2023-01-07T08:32:29.973Z,3.10
2023-01-07T08:35:00.045Z,3.47
2023-01-07T08:37:31.371Z,3.17
2023-01-07T08:40:05.631Z,3.00
2023-01-07T08:42:35.678Z,3.33
2023-01-07T08:45:06.708Z,3.67
2023-01-07T08:47:40.044Z,3.60
2023-01-07T08:50:09.193Z,3.30
2023-01-07T08:52:41.248Z,3.50
2023-01-07T08:55:16.797Z,3.37
2023-01-07T08:57:47.807Z,3.93
2023-01-07T09:00:21.494Z,3.20
2023-01-07T09:02:59.106Z,3.40
2023-01-07T09:05:47.300Z,3.50
2023-01-07T09:08:19.819Z,3.47
2023-01-07T09:10:48.409Z,4.07
2023-01-07T09:13:20.786Z,3.60
2023-01-07T09:15:55.611Z,3.27
2023-01-07T09:18:31.136Z,4.10
2023-01-07T09:21:18.459Z,3.43
2023-01-07T09:23:49.606Z,3.47
2023-01-07T09:26:19.150Z,3.47
2023-01-07T09:28:51.637Z,2.63
2023-01-07T09:31:32.849Z,2.83
2023-01-07T09:34:16.982Z,3.30
2023-01-07T09:36:48.143Z,3.00
2023-01-07T09:39:16.877Z,2.97
2023-01-07T09:41:58.471Z,2.77
2023-01-07T09:44:44.919Z,2.80
2023-01-07T09:47:24.850Z,2.90
2023-01-07T09:49:59.129Z,3.00
2023-01-07T09:52:37.595Z,3.03
2023-01-07T09:55:25.657Z,2.70
2023-01-07T09:58:10.718Z,3.00
2023-01-07T10:00:48.421Z,2.63
2023-01-07T10:03:35.464Z,2.70
2023-01-07T10:06:12.722Z,2.97
2023-01-07T10:09:02.627Z,2.73
2023-01-07T10:11:55.016Z,2.60
2023-01-07T10:14:42.041Z,2.70
2023-01-07T10:17:25.684Z,2.63
2023-01-07T10:20:08.780Z,2.80
2023-01-07T10:22:46.344Z,2.73
2023-01-07T10:25:23.364Z,2.63
2023-01-07T10:27:58.550Z,2.60
2023-01-07T10:30:32.867Z,2.40
2023-01-07T10:33:14.806Z,2.20
2023-01-07T10:35:48.428Z,2.13
2023-01-07T10:38:36.776Z,2.40
2023-01-07T10:41:25.093Z,2.67
2023-01-07T10:45:15.609Z,2.10
2023-01-07T10:47:13.114Z,2.07
2023-01-07T10:50:16.644Z,2.13
2023-01-07T10:53:03.434Z,2.47
2023-01-07T10:55:44.680Z,1.70
2023-01-07T10:58:16.985Z,2.20
2023-01-07T11:00:49.205Z,2.00
2023-01-07T11:03:29.939Z,2.13
2023-01-07T11:06:06.415Z,2.40
2023-01-07T11:08:44.282Z,2.40
2023-01-07T11:11:22.919Z,2.70
2023-01-07T11:14:01.230Z,2.50
2023-01-07T11:16:44.262Z,2.90
2023-01-07T11:19:16.895Z,2.77
2023-01-07T11:21:53.749Z,2.40
2023-01-07T11:24:43.343Z,2.83
2023-01-07T11:27:29.402Z,3.00
2023-01-07T11:30:12.002Z,2.87
2023-01-07T11:32:52.472Z,2.73
2023-01-07T11:35:37.622Z,2.73
2023-01-07T11:38:29.832Z,3.30
2023-01-07T11:41:06.494Z,2.10
2023-01-07T11:43:36.635Z,3.10
2023-01-07T11:46:23.956Z,2.50
2023-01-07T11:48:58.544Z,2.37
2023-01-07T11:51:29.430Z,2.60
2023-01-07T11:54:36.464Z,2.47
2023-01-07T11:57:26.928Z,2.30
2023-01-07T12:00:15.595Z,2.30
2023-01-07T12:03:05.645Z,2.47
2023-01-07T12:05:37.193Z,2.37
2023-01-07T12:08:07.111Z,2.50
2023-01-07T12:10:38.295Z,2.20
2023-01-07T12:13:33.602Z,2.50
2023-01-07T12:16:25.468Z,2.40
2023-01-07T12:19:12.591Z,2.50
2023-01-07T12:21:54.822Z,1.70
2023-01-07T12:27:56.865Z,2.77
2023-01-07T12:30:51.947Z,2.00
2023-01-07T12:33:53.328Z,2.00
2023-01-07T12:36:35.894Z,2.10
2023-01-07T12:39:15.675Z,1.80
2023-01-07T12:41:50.258Z,2.00
2023-01-07T12:44:24.668Z,2.10
2023-01-07T12:47:31.482Z,1.93
2023-01-07T12:50:05.222Z,1.67
2023-01-07T12:52:43.817Z,1.80
2023-01-07T12:55:23.573Z,1.80
2023-01-07T12:58:03.940Z,1.90
2023-01-07T13:00:39.888Z,1.53
2023-01-07T13:03:23.566Z,1.60
2023-01-07T13:06:00.317Z,1.50
2023-01-07T13:08:41.265Z,1.50
2023-01-07T13:11:21.998Z,1.60
2023-01-07T13:13:56.203Z,1.37
2023-01-07T13:16:27.860Z,1.57
2023-01-07T13:19:03.972Z,1.60
2023-01-07T13:21:33.840Z,1.50
2023-01-07T13:24:21.009Z,1.40
2023-01-07T13:27:28.526Z,1.47
2023-01-07T13:30:07.399Z,1.80
2023-01-07T13:32:48.365Z,1.50
2023-01-07T13:35:48.465Z,1.73
2023-01-07T13:39:08.704Z,1.57
2023-01-07T13:41:54.515Z,1.87
2023-01-07T13:44:54.548Z,1.73
2023-01-07T13:47:26.828Z,2.10
2023-01-07T13:49:58.158Z,1.80
2023-01-07T13:52:33.928Z,2.20
2023-01-07T13:55:05.580Z,2.20
2023-01-07T13:58:06.771Z,2.43
2023-01-07T14:00:44.412Z,1.83
2023-01-07T14:03:50.161Z,2.00
2023-01-07T14:06:46.518Z,2.37
2023-01-07T14:09:35.949Z,2.17
2023-01-07T14:13:04.928Z,2.30
2023-01-07T14:16:06.059Z,2.30
2023-01-07T14:19:08.579Z,2.60
2023-01-07T14:22:00.048Z,2.40
2023-01-07T14:24:44.744Z,2.90
2023-01-07T14:27:44.209Z,2.60
2023-01-07T14:30:21.926Z,2.83
2023-01-07T14:33:05.145Z,3.50
2023-01-07T14:35:40.692Z,3.60
2023-01-07T14:38:48.522Z,3.40
2023-01-07T14:41:21.757Z,3.00
2023-01-07T14:44:05.675Z,3.37
2023-01-07T14:46:51.404Z,3.33
2023-01-07T14:49:45.363Z,3.10
2023-01-07T14:52:42.561Z,3.07
2023-01-07T14:55:29.471Z,3.27
2023-01-07T14:58:16.455Z,3.37
2023-01-07T15:01:26.699Z,3.50
2023-01-07T15:04:15.808Z,3.23
2023-01-07T15:06:45.303Z,2.90
2023-01-07T15:09:42.891Z,2.83
2023-01-07T15:12:38.099Z,2.93
2023-01-07T15:15:42.357Z,2.90
2023-01-07T15:18:15.092Z,3.13
2023-01-07T15:21:49.097Z,2.80
2023-01-07T15:24:05.633Z,2.80
2023-01-07T15:27:03.249Z,2.83
2023-01-07T15:29:43.935Z,2.77
2023-01-07T15:32:31.950Z,2.97
2023-01-07T15:35:09.641Z,2.60
2023-01-07T15:37:39.999Z,2.60
2023-01-07T15:40:19.710Z,2.83
2023-01-07T15:42:55.289Z,2.90
2023-01-07T15:45:36.283Z,2.87
2023-01-07T15:48:24.270Z,3.00
2023-01-07T15:50:53.751Z,4.30
2023-01-07T15:53:36.702Z,3.60
2023-01-07T15:56:11.960Z,2.93
2023-01-07T15:58:49.285Z,2.97
2023-01-07T16:01:23.208Z,3.20
2023-01-07T16:03:56.757Z,3.77
2023-01-07T16:06:47.477Z,3.50
2023-01-07T16:09:38.863Z,3.73
2023-01-07T16:12:22.050Z,3.43
2023-01-07T16:14:52.405Z,3.67
2023-01-07T16:17:50.018Z,3.70
2023-01-07T16:20:30.093Z,3.73
2023-01-07T16:23:33.057Z,3.70
2023-01-07T16:26:15.733Z,3.73
2023-01-07T16:28:50.967Z,4.50
2023-01-07T16:31:24.658Z,3.93
2023-01-07T16:34:01.504Z,3.70
2023-01-07T16:36:37.351Z,3.97
2023-01-07T16:39:17.746Z,4.00
2023-01-07T16:42:28.072Z,3.67
2023-01-07T16:45:15.689Z,3.63
2023-01-07T16:48:16.341Z,3.40
2023-01-07T16:50:55.925Z,3.87
2023-01-07T16:53:33.724Z,3.57
2023-01-07T16:56:25.472Z,3.60
2023-01-07T16:59:08.463Z,3.03
2023-01-07T17:01:38.300Z,3.20
2023-01-07T17:04:20.336Z,3.13
2023-01-07T17:07:02.907Z,3.30
2023-01-07T17:09:41.247Z,3.67
2023-01-07T17:12:28.939Z,3.10
2023-01-07T17:15:02.483Z,2.93
2023-01-07T17:17:40.847Z,3.10
2023-01-07T17:20:40.151Z,3.67
2023-01-07T17:23:46.936Z,3.43
2023-01-07T17:26:23.989Z,3.83
2023-01-07T17:28:57.489Z,3.20
2023-01-07T17:31:29.329Z,3.47
2023-01-07T17:34:00.933Z,3.60
2023-01-07T17:36:34.104Z,3.70
2023-01-07T17:39:09.095Z,3.23
2023-01-07T17:42:03.230Z,3.30
2023-01-07T17:44:43.396Z,3.57
2023-01-07T17:47:14.665Z,3.20
2023-01-07T17:49:48.464Z,3.03
2023-01-07T17:52:20.056Z,3.30
2023-01-07T17:54:50.276Z,3.20
2023-01-07T17:57:22.611Z,3.70
2023-01-07T17:59:53.565Z,3.47
2023-01-07T18:02:37.391Z,3.10
2023-01-07T18:05:17.473Z,3.40
2023-01-07T18:07:54.507Z,3.13
2023-01-07T18:10:50.042Z,2.93
2023-01-07T18:13:34.328Z,3.60
2023-01-07T18:16:03.863Z,2.90
2023-01-07T18:18:39.357Z,2.70
2023-01-07T18:21:08.791Z,2.53
2023-01-07T18:23:39.283Z,2.70
2023-01-07T18:26:10.647Z,2.30
2023-01-07T18:28:51.457Z,2.60
2023-01-07T18:31:24.444Z,2.53
2023-01-07T18:34:04.960Z,2.70
2023-01-07T18:36:40.285Z,2.93
2023-01-07T18:39:10.414Z,3.00
2023-01-07T18:41:45.142Z,2.63
2023-01-07T18:44:16.284Z,2.37
2023-01-07T18:46:44.985Z,2.33
2023-01-07T18:49:14.283Z,2.40
2023-01-07T18:51:44.688Z,1.93
2023-01-07T18:54:15.097Z,2.10
2023-01-07T18:56:51.388Z,1.47
2023-01-07T18:59:24.346Z,2.10
2023-01-07T19:01:58.375Z,1.47
2023-01-07T19:04:27.901Z,2.00
2023-01-07T19:07:10.513Z,1.90
2023-01-07T19:09:41.333Z,2.17
2023-01-07T19:12:25.768Z,1.73
2023-01-07T19:14:57.097Z,1.70
2023-01-07T19:17:29.270Z,1.20
2023-01-07T19:20:14.791Z,1.50
2023-01-07T19:22:47.551Z,1.60
2023-01-07T19:25:25.297Z,1.70
2023-01-07T19:27:57.396Z,1.50
2023-01-07T19:30:31.970Z,1.47
2023-01-07T19:33:06.464Z,1.70
2023-01-07T19:35:39.149Z,1.77
2023-01-07T19:38:09.208Z,1.80
2023-01-07T19:40:38.339Z,1.90
2023-01-07T19:43:10.572Z,1.50
2023-01-07T19:45:43.182Z,1.67
2023-01-07T19:48:17.683Z,1.87
2023-01-07T19:50:48.165Z,1.87
2023-01-07T19:53:21.504Z,1.83
2023-01-07T19:55:54.759Z,1.60
2023-01-07T19:58:25.771Z,2.00
2023-01-07T20:00:56.580Z,1.70
2023-01-07T20:03:27.418Z,1.70
2023-01-07T20:06:03.668Z,1.67
2023-01-07T20:08:32.886Z,1.90
2023-01-07T20:11:25.911Z,1.50
2023-01-07T20:13:58.163Z,1.60
2023-01-07T20:16:28.741Z,1.80
2023-01-07T20:19:11.341Z,1.70
2023-01-07T20:21:43.425Z,1.93
2023-01-07T20:24:18.438Z,2.00
2023-01-07T20:26:48.183Z,2.00
2023-01-07T20:29:19.406Z,2.13
2023-01-07T20:31:51.463Z,2.30
2023-01-07T20:34:31.501Z,2.00
2023-01-07T20:37:06.167Z,2.00
2023-01-07T20:39:40.832Z,1.67
2023-01-07T20:42:13.204Z,1.73
2023-01-07T20:44:43.598Z,1.60
2023-01-07T20:47:16.356Z,1.50
2023-01-07T20:49:51.632Z,1.87
2023-01-07T20:52:30.477Z,1.60
2023-01-07T20:55:09.808Z,1.30
2023-01-07T20:57:54.263Z,1.30
2023-01-07T21:00:25.645Z,1.50
2023-01-07T21:03:09.510Z,1.50
2023-01-07T21:05:40.514Z,1.50
2023-01-07T21:08:15.491Z,1.43
2023-01-07T21:10:47.617Z,1.60
2023-01-07T21:13:34.790Z,1.47
2023-01-07T21:19:15.780Z,1.37
2023-01-07T21:21:55.149Z,1.47
2023-01-07T21:24:47.719Z,1.50
2023-01-07T21:27:18.126Z,1.47
2023-01-07T21:29:52.078Z,1.60
2023-01-07T21:32:21.207Z,1.40
2023-01-07T21:34:52.787Z,1.33
2023-01-07T21:37:22.452Z,1.60
2023-01-07T21:39:51.615Z,1.20
2023-01-07T21:42:21.384Z,1.33
2023-01-07T21:44:54.977Z,1.60
2023-01-07T21:47:27.667Z,1.60
2023-01-07T21:50:03.184Z,1.50
2023-01-07T21:52:35.448Z,1.67
2023-01-07T21:55:12.342Z,1.40
2023-01-07T21:57:43.368Z,1.60
2023-01-07T22:00:16.515Z,1.50
2023-01-07T22:06:35.256Z,1.50
2023-01-07T22:09:07.504Z,1.20
2023-01-07T22:14:24.893Z,1.80
2023-01-07T22:16:55.486Z,1.57
2023-01-07T22:19:27.445Z,1.50
2023-01-07T22:24:50.323Z,1.50
2023-01-07T22:31:26.164Z,1.43
2023-01-07T22:33:58.552Z,1.40
2023-01-07T22:36:45.012Z,1.30
2023-01-07T22:39:25.195Z,1.30
2023-01-07T22:42:05.165Z,1.47
2023-01-07T22:44:40.299Z,1.40
2023-01-07T22:47:30.975Z,1.40
2023-01-07T22:50:17.601Z,1.37
2023-01-07T22:52:47.349Z,1.53
2023-01-07T22:55:25.697Z,1.40
2023-01-07T22:57:55.442Z,1.40
2023-01-07T23:00:42.646Z,1.33
2023-01-07T23:03:21.489Z,1.33
2023-01-07T23:05:52.304Z,1.50
2023-01-07T23:08:22.082Z,1.30
2023-01-07T23:11:06.917Z,1.23
2023-01-07T23:13:39.647Z,1.40
2023-01-07T23:16:11.925Z,1.07
2023-01-07T23:18:42.461Z,1.40
2023-01-07T23:21:14.868Z,1.20
2023-01-07T23:23:47.801Z,1.33
2023-01-07T23:26:19.321Z,1.10
2023-01-07T23:28:49.280Z,1.33
2023-01-07T23:32:14.673Z,1.17
2023-01-07T23:34:44.810Z,1.30
2023-01-07T23:37:15.585Z,1.70
2023-01-07T23:39:44.814Z,1.50
2023-01-07T23:42:17.992Z,1.37
2023-01-07T23:44:50.692Z,1.60
2023-01-07T23:47:21.337Z,1.60
2023-01-07T23:49:57.288Z,1.13
2023-01-07T23:52:27.222Z,1.40
2023-01-07T23:55:05.183Z,1.47
2023-01-07T23:57:35.907Z,1.60
